Bryan, TX (77805)

10:42 PM CST on February 26, 2015 (GMT -0600)
Allen Park | Change Station
CLOSE
Current Station
Personal Weather Station
Location: Bryan, TX
Elevation: 331 ft
Nearby Weather Stations

Elev 331 ft 30.68 °N, 96.35 °W | Updated 15 seconds ago

Clear
Clear
36.5 °F
Feels Like 36 °F
N
1.8
Wind Variable Wind from WNW
Gusts 2.5 mph

Today
High -- | Low -- °F
--% Chance of Precip.
Yesterday
High -- | Low -- °F
Precip. -- in
6:55 AM 6:21 PM
Waxing Gibbous, 65% visible
Pressure 30.39 in
Visibility 10.0 miles
Clouds Clear
Windchill 36 °F
Dew Point 24 °F
Humidity 61%
Rainfall 0.00 in
Snow Depth Not available.
UV 0.0 out of 12
Pollen 8.30 out of 12
Air Quality Not available.
Flu Activity Not available.
METAR KCFD 270435Z AUTO 35005KT 10SM CLR 02/M04 A3039 RMK AO2 T00161036

More Conditions Fewer Conditions

Pressure 30.39 in
Visibility 10.0 miles
Clouds Clear
Windchill 36 °F
Dew Point 24 °F
Humidity 61%
Rainfall 0.00 in
Snow Depth Not available.
UV 0.0 out of 12
Pollen 8.30 out of 12
Air Quality Not available.
Flu Activity Not available.
METAR KCFD 270435Z AUTO 35005KT 10SM CLR 02/M04 A3039 RMK AO2 T00161036

More Conditions Fewer Conditions

10-Day Weather Forecast

Almanac

Astronomy

Feb. 26, 2015 Rise Set
Actual Time
Civil Twilight
Nautical Twilight
Astronomical Twilight
Moon
Length of Visible Light
Length of Day
Tomorrow will be .
, % of the Moon is Illuminated

Today's Extremes

State Highs State Lows

Community

WunderPhotos

Upload Photos

1,800,632 photos uploaded!

WunderBlogs® & News

Nearby

Air Quality

  Air Quality AQ Index Pollutant
Not available.

Snow Depth

Station Depth Elevation

Earthquake Activity

City Distance Mag. Time & Date
Minimum magnitude displayed is 2.5.

Coastal Water Temperatures

Place Temperature

Nearby Weather Stations